createdAt,value
2019-03-19T00:00:15.189Z,13.31
2019-03-19T00:05:23.778Z,12.88
2019-03-19T00:10:31.887Z,11.88
2019-03-19T00:15:40.309Z,12.56
2019-03-19T00:20:48.608Z,10.39
2019-03-19T00:25:57.854Z,12.93
2019-03-19T00:31:06.158Z,11.06
2019-03-19T00:36:14.690Z,9.91
2019-03-19T00:41:23.188Z,14.41
2019-03-19T00:46:31.786Z,14.55
2019-03-19T00:51:40.143Z,11.09
2019-03-19T00:56:49.402Z,11.16
2019-03-19T01:01:57.898Z,9.36
2019-03-19T01:07:06.208Z,12.17
2019-03-19T01:12:14.393Z,13.07
2019-03-19T01:17:23.425Z,12.60
2019-03-19T01:22:31.805Z,12.48
2019-03-19T01:27:40.327Z,10.85
2019-03-19T01:32:48.536Z,11.95
2019-03-19T01:37:57.191Z,10.28
2019-03-19T01:43:05.490Z,10.03
2019-03-19T01:48:14.522Z,11.25
2019-03-19T01:53:22.928Z,13.72
2019-03-19T01:58:31.449Z,14.74
2019-03-19T02:03:39.626Z,10.24
2019-03-19T02:08:48.021Z,9.66
2019-03-19T02:13:56.214Z,14.02
2019-03-19T02:19:04.749Z,11.30
2019-03-19T02:24:12.990Z,12.87
2019-03-19T02:29:21.467Z,12.54
2019-03-19T02:34:29.828Z,9.58
2019-03-19T02:39:38.176Z,14.61
2019-03-19T02:44:46.494Z,12.80
2019-03-19T02:49:54.908Z,10.30
2019-03-19T02:55:03.079Z,11.14
2019-03-19T03:00:11.627Z,11.51
2019-03-19T03:05:19.905Z,13.17
2019-03-19T03:10:28.318Z,10.11
2019-03-19T03:15:36.536Z,11.38
2019-03-19T03:20:45.244Z,11.02
2019-03-19T03:25:53.933Z,11.27
2019-03-19T03:31:02.486Z,11.48
2019-03-19T03:36:10.665Z,8.68
2019-03-19T03:41:19.052Z,14.70
2019-03-19T03:46:27.425Z,11.63
2019-03-19T03:51:35.872Z,12.09
2019-03-19T03:56:44.346Z,14.47
2019-03-19T04:01:52.950Z,9.67
2019-03-19T04:07:01.564Z,9.52
2019-03-19T04:12:09.970Z,14.25
2019-03-19T04:17:18.481Z,12.18
2019-03-19T04:22:26.913Z,9.81
2019-03-19T04:27:35.062Z,10.85
2019-03-19T04:32:43.637Z,10.27
2019-03-19T04:37:51.994Z,9.86
2019-03-19T04:43:00.683Z,12.30
2019-03-19T04:48:09.262Z,12.96
2019-03-19T04:53:17.727Z,11.10
2019-03-19T04:58:25.934Z,11.73
2019-03-19T05:03:34.540Z,10.75
2019-03-19T05:08:42.728Z,9.88
2019-03-19T05:13:51.054Z,8.14
2019-03-19T05:18:59.345Z,10.75
2019-03-19T05:24:07.775Z,9.37
2019-03-19T05:29:16.122Z,10.39
2019-03-19T05:34:24.633Z,11.32
2019-03-19T05:39:32.914Z,10.61
2019-03-19T05:44:41.447Z,11.84
2019-03-19T05:49:49.782Z,13.09
2019-03-19T05:54:58.226Z,11.73
2019-03-19T06:00:06.658Z,10.60
2019-03-19T06:05:14.926Z,10.72
2019-03-19T06:10:25.707Z,10.86
2019-03-19T06:15:30.986Z,11.80
2019-03-19T06:20:39.390Z,11.86
2019-03-19T06:25:47.630Z,12.99
2019-03-19T06:30:56.282Z,9.23
2019-03-19T06:36:04.892Z,9.40
2019-03-19T06:41:13.450Z,10.35
2019-03-19T06:46:21.796Z,9.56
2019-03-19T06:51:30.021Z,8.56
2019-03-19T06:56:39.120Z,7.94
2019-03-19T07:01:47.330Z,9.57
2019-03-19T07:06:55.781Z,10.39
2019-03-19T07:12:04.110Z,9.70
2019-03-19T07:17:12.486Z,9.46
2019-03-19T07:22:20.886Z,9.83
2019-03-19T07:27:29.303Z,10.47
2019-03-19T07:32:37.823Z,10.04
2019-03-19T07:37:46.247Z,10.33
2019-03-19T07:42:54.663Z,8.39
2019-03-19T07:48:03.104Z,9.86
2019-03-19T07:53:11.469Z,10.47
2019-03-19T07:58:19.855Z,10.55
2019-03-19T08:03:28.364Z,9.00
2019-03-19T08:08:36.752Z,10.59
2019-03-19T08:13:45.235Z,10.74
2019-03-19T08:18:53.725Z,9.38
2019-03-19T08:24:03.848Z,9.85
2019-03-19T08:29:12.429Z,11.61
2019-03-19T08:34:20.675Z,10.62
2019-03-19T08:39:29.112Z,12.99
2019-03-19T08:44:37.476Z,11.55
2019-03-19T08:49:45.852Z,12.58
2019-03-19T08:54:54.261Z,10.97
2019-03-19T09:00:02.647Z,10.40
2019-03-19T09:05:10.980Z,11.13
2019-03-19T09:10:19.556Z,13.66
2019-03-19T09:15:28.148Z,7.27
2019-03-19T09:20:36.696Z,7.31
2019-03-19T09:25:45.377Z,7.02
2019-03-19T09:30:53.845Z,7.77
2019-03-19T09:36:02.289Z,7.15
2019-03-19T09:41:10.768Z,7.18
2019-03-19T09:46:19.414Z,6.07
2019-03-19T09:51:27.862Z,9.03
2019-03-19T09:56:36.189Z,7.46
2019-03-19T10:01:45.190Z,8.54
2019-03-19T10:06:53.502Z,6.41
2019-03-19T10:12:01.946Z,8.46
2019-03-19T10:17:10.481Z,12.64
2019-03-19T10:22:18.998Z,7.93
2019-03-19T10:27:27.266Z,12.02
2019-03-19T10:32:35.694Z,9.38
2019-03-19T10:37:44.025Z,8.39
2019-03-19T10:42:52.493Z,6.77
2019-03-19T10:48:01.901Z,7.22
2019-03-19T10:53:03.677Z,10.22
2019-03-19T10:58:12.062Z,6.83
2019-03-19T11:03:20.735Z,8.27
2019-03-19T11:08:29.103Z,6.37
2019-03-19T11:13:37.562Z,6.19
2019-03-19T11:18:45.806Z,5.99
2019-03-19T11:23:54.225Z,6.81
2019-03-19T11:29:02.476Z,7.51
2019-03-19T11:34:10.953Z,7.44
2019-03-19T11:39:19.370Z,7.93
2019-03-19T11:44:27.981Z,6.54
2019-03-19T11:49:36.278Z,6.79
2019-03-19T11:54:44.559Z,6.29
2019-03-19T11:59:53.051Z,6.85
2019-03-19T12:05:01.681Z,5.95
2019-03-19T12:10:09.927Z,5.16
2019-03-19T12:15:18.298Z,7.38
2019-03-19T12:20:26.672Z,7.62
2019-03-19T12:25:34.930Z,5.19
2019-03-19T12:30:43.160Z,6.16
2019-03-19T12:35:51.573Z,5.53
2019-03-19T12:41:00.096Z,4.73
2019-03-19T12:46:00.459Z,7.43
2019-03-19T12:51:08.794Z,5.17
2019-03-19T12:56:17.177Z,6.63
2019-03-19T13:01:28.481Z,5.36
2019-03-19T13:06:33.450Z,8.10
2019-03-19T13:11:40.203Z,5.53
2019-03-19T13:16:48.965Z,5.42
2019-03-19T13:21:57.527Z,4.58
2019-03-19T13:27:05.888Z,5.01
2019-03-19T13:32:14.371Z,7.10
2019-03-19T13:37:21.245Z,5.84
2019-03-19T13:42:29.688Z,7.57
2019-03-19T13:47:38.742Z,5.25
2019-03-19T13:52:47.154Z,4.94
2019-03-19T13:57:55.731Z,3.99
2019-03-19T14:03:04.142Z,5.94
2019-03-19T14:08:12.778Z,6.55
2019-03-19T14:13:21.283Z,5.89
2019-03-19T14:18:30.026Z,5.86
2019-03-19T14:23:38.577Z,6.79
2019-03-19T14:28:47.335Z,5.80
2019-03-19T14:33:55.763Z,5.95
2019-03-19T14:39:04.918Z,6.40
2019-03-19T14:44:12.226Z,4.45
2019-03-19T14:49:20.819Z,4.35
2019-03-19T14:54:29.805Z,5.20
2019-03-19T14:59:38.958Z,4.46
2019-03-19T15:04:49.576Z,6.14
2019-03-19T15:09:47.966Z,4.52
2019-03-19T15:14:56.473Z,5.27
2019-03-19T15:20:05.326Z,6.89
2019-03-19T15:25:13.534Z,6.23
2019-03-19T15:30:22.266Z,5.62
2019-03-19T15:35:30.690Z,4.34
2019-03-19T15:40:39.287Z,5.07
2019-03-19T15:45:48.733Z,5.44
2019-03-19T15:50:57.632Z,5.85
2019-03-19T15:56:06.133Z,4.55
2019-03-19T16:01:16.954Z,4.69
2019-03-19T16:06:22.421Z,5.69
2019-03-19T16:11:31.033Z,5.75
2019-03-19T16:16:39.550Z,6.94
2019-03-19T16:21:40.242Z,5.59
2019-03-19T16:26:48.769Z,5.31
2019-03-19T16:31:57.471Z,6.33
2019-03-19T16:37:05.878Z,5.02
2019-03-19T16:42:14.358Z,6.68
2019-03-19T16:47:22.825Z,6.66
2019-03-19T16:52:31.395Z,5.53
2019-03-19T16:57:39.743Z,6.06
2019-03-19T17:02:48.286Z,6.31
2019-03-19T17:07:56.502Z,6.89
2019-03-19T17:13:05.763Z,8.79
2019-03-19T17:18:14.343Z,9.94
2019-03-19T17:23:22.900Z,7.11
2019-03-19T17:28:31.449Z,5.73
2019-03-19T17:33:40.142Z,6.80
2019-03-19T17:38:48.398Z,7.69
2019-03-19T17:43:57.608Z,8.12
2019-03-19T17:49:05.980Z,7.39
2019-03-19T17:54:14.538Z,8.35
2019-03-19T17:59:22.885Z,7.12
2019-03-19T18:04:31.572Z,6.37
2019-03-19T18:09:40.049Z,7.73
2019-03-19T18:14:49.949Z,10.58
2019-03-19T18:19:58.642Z,7.26
2019-03-19T18:25:07.073Z,7.00
2019-03-19T18:30:15.521Z,7.05
2019-03-19T18:35:24.663Z,8.36
2019-03-19T18:40:32.828Z,9.28
2019-03-19T18:45:41.593Z,8.67
2019-03-19T18:50:49.933Z,8.48
2019-03-19T18:55:58.818Z,8.27
2019-03-19T19:01:07.019Z,8.98
2019-03-19T19:06:15.540Z,7.36
2019-03-19T19:11:23.806Z,8.39
2019-03-19T19:16:33.030Z,9.56
2019-03-19T19:21:41.358Z,11.30
2019-03-19T19:26:50.214Z,11.25
2019-03-19T19:31:58.507Z,10.28
2019-03-19T19:37:06.970Z,7.67
2019-03-19T19:42:15.314Z,10.15
2019-03-19T19:47:24.125Z,10.18
2019-03-19T19:52:32.494Z,10.01
2019-03-19T19:57:41.145Z,8.98
2019-03-19T20:02:49.597Z,9.28
2019-03-19T20:07:57.976Z,7.86
2019-03-19T20:13:06.229Z,8.28
2019-03-19T20:18:14.826Z,10.13
2019-03-19T20:23:23.156Z,13.93
2019-03-19T20:28:31.709Z,7.74
2019-03-19T20:33:40.015Z,9.66
2019-03-19T20:38:48.624Z,10.75
2019-03-19T20:43:57.322Z,9.71
2019-03-19T20:49:06.114Z,8.65
2019-03-19T20:54:14.505Z,8.93
2019-03-19T20:59:23.080Z,8.80
2019-03-19T21:04:31.861Z,10.51
2019-03-19T21:09:40.668Z,10.40
2019-03-19T21:14:49.132Z,9.53
2019-03-19T21:19:58.050Z,10.49
2019-03-19T21:25:06.552Z,10.36
2019-03-19T21:30:15.472Z,11.24
2019-03-19T21:35:23.783Z,10.48
2019-03-19T21:40:32.363Z,9.15
2019-03-19T21:45:40.736Z,9.59
2019-03-19T21:50:49.733Z,10.60
2019-03-19T21:55:57.935Z,9.09
2019-03-19T22:01:06.623Z,7.99
2019-03-19T22:06:16.529Z,10.64
2019-03-19T22:11:24.465Z,8.90
2019-03-19T22:16:32.848Z,10.40
2019-03-19T22:21:41.450Z,6.91
2019-03-19T22:26:49.827Z,7.32
2019-03-19T22:31:58.619Z,10.64
2019-03-19T22:37:06.795Z,9.63
2019-03-19T22:42:15.313Z,9.69
2019-03-19T22:47:23.690Z,9.08
2019-03-19T22:52:32.392Z,11.02
2019-03-19T22:57:40.820Z,9.21
2019-03-19T23:02:49.453Z,12.31
2019-03-19T23:07:57.826Z,10.37
2019-03-19T23:13:06.332Z,13.20
2019-03-19T23:18:14.510Z,11.72
2019-03-19T23:23:23.025Z,9.42
2019-03-19T23:28:32.001Z,11.54
2019-03-19T23:33:40.610Z,9.92
2019-03-19T23:38:48.934Z,9.63
2019-03-19T23:43:57.431Z,11.16
2019-03-19T23:49:05.778Z,10.55
2019-03-19T23:54:14.336Z,10.20
2019-03-19T23:59:22.522Z,10.70
